PWSweather.com
Personal Weather Stations
Station Observations
KPLY111
14 Baltic Ave., Plymouth, MA 02360

14 Baltic Ave.Plymouth, MA 02360

Lat: 41.94, Lon: -70.66

Elevation: 110

Station Type: Davis Vantage Pro Plus 2

http://johnsweather.com/

High Low Average
Temperature 94.3°F34.6°C 73.2°F22.9°C 81.5°F27.5°C
Dew Point 76.0°F24.4°C 68.0°F20.0°C 71.3°F21.8°C
Winds 11.0 mph 17.7 kmh Calm Calm 4.0 mph SSW6.4 kmh SSW
Wind Gusts 15.0 mph24.1 kmh 5.0 mph8.0 kmh 9.0 mph14.5 kmh
Humidity 87% 55% 72%
Pressure 29.97 in1014.9 mb 29.91 in1012.9 mb -
Precipitation 0.00 in0.0 mm - -
Hour Temp Dew Point Humidity Winds Wind Gusts Pressure Precip Precip Rate Daily Precip Total
12:00 AM 74.2°F23.4°C 68.0°F20.0°C 80% 5.0 mph S8.0 kmh S 7.0 mph11.3 kmh 29.93 in1013.5 mb 0.00 in0.0 mm 0.00 in0.0 mm 0.00 in0.0 mm
12:05 AM 74.2°F23.4°C 68.0°F20.0°C 81% 5.0 mph SSW8.0 kmh SSW 6.0 mph9.7 kmh 29.93 in1013.5 mb 0.00 in0.0 mm 0.00 in0.0 mm 0.00 in0.0 mm
12:10 AM 74.1°F23.4°C 68.0°F20.0°C 81% 1.0 mph SW1.6 kmh SW 6.0 mph9.7 kmh 29.93 in1013.5 mb 0.00 in0.0 mm 0.00 in0.0 mm 0.00 in0.0 mm
12:15 AM 74.1°F23.4°C 68.0°F20.0°C 81% Calm Calm 6.0 mph9.7 kmh 29.93 in1013.5 mb 0.00 in0.0 mm 0.00 in0.0 mm 0.00 in0.0 mm
12:20 AM 74.1°F23.4°C 68.0°F20.0°C 81% Calm Calm 8.0 mph12.9 kmh 29.93 in1013.5 mb 0.00 in0.0 mm 0.00 in0.0 mm 0.00 in0.0 mm
12:25 AM 74.0°F23.3°C 68.0°F20.0°C 81% 4.0 mph SSW6.4 kmh SSW 8.0 mph12.9 kmh 29.93 in1013.5 mb 0.00 in0.0 mm 0.00 in0.0 mm 0.00 in0.0 mm
12:30 AM 74.0°F23.3°C 68.0°F20.0°C 81% 4.0 mph SSW6.4 kmh SSW 8.0 mph12.9 kmh 29.93 in1013.5 mb 0.00 in0.0 mm 0.00 in0.0 mm 0.00 in0.0 mm
12:35 AM 73.9°F23.3°C 68.0°F20.0°C 81% Calm Calm 6.0 mph9.7 kmh 29.92 in1013.2 mb 0.00 in0.0 mm 0.00 in0.0 mm 0.00 in0.0 mm
12:40 AM 74.0°F23.3°C 68.0°F20.0°C 82% 4.0 mph SSW6.4 kmh SSW 6.0 mph9.7 kmh 29.92 in1013.2 mb 0.00 in0.0 mm 0.00 in0.0 mm 0.00 in0.0 mm
12:45 AM 73.9°F23.3°C 68.0°F20.0°C 82% 5.0 mph S8.0 kmh S 8.0 mph12.9 kmh 29.92 in1013.2 mb 0.00 in0.0 mm 0.00 in0.0 mm 0.00 in0.0 mm
12:50 AM 73.9°F23.3°C 68.0°F20.0°C 82% 4.0 mph S6.4 kmh S 8.0 mph12.9 kmh 29.92 in1013.2 mb 0.00 in0.0 mm 0.00 in0.0 mm 0.00 in0.0 mm
12:55 AM 73.9°F23.3°C 68.0°F20.0°C 82% 2.0 mph SSW3.2 kmh SSW 6.0 mph9.7 kmh 29.92 in1013.2 mb 0.00 in0.0 mm 0.00 in0.0 mm 0.00 in0.0 mm
01:00 AM 73.9°F23.3°C 68.0°F20.0°C 82% 2.0 mph SW3.2 kmh SW 7.0 mph11.3 kmh 29.92 in1013.2 mb 0.00 in0.0 mm 0.00 in0.0 mm 0.00 in0.0 mm
01:05 AM 73.9°F23.3°C 68.0°F20.0°C 82% 8.0 mph SSW12.9 kmh SSW 8.0 mph12.9 kmh 29.92 in1013.2 mb 0.00 in0.0 mm 0.00 in0.0 mm 0.00 in0.0 mm
01:10 AM 73.9°F23.3°C 68.0°F20.0°C 82% 2.0 mph S3.2 kmh S 8.0 mph12.9 kmh 29.92 in1013.2 mb 0.00 in0.0 mm 0.00 in0.0 mm 0.00 in0.0 mm
01:15 AM 73.9°F23.3°C 69.0°F20.6°C 83% 2.0 mph SSW3.2 kmh SSW 8.0 mph12.9 kmh 29.92 in1013.2 mb 0.00 in0.0 mm 0.00 in0.0 mm 0.00 in0.0 mm
01:20 AM 73.9°F23.3°C 69.0°F20.6°C 83% 4.0 mph WSW6.4 kmh WSW 7.0 mph11.3 kmh 29.92 in1013.2 mb 0.00 in0.0 mm 0.00 in0.0 mm 0.00 in0.0 mm
01:25 AM 73.9°F23.3°C 69.0°F20.6°C 83% 5.0 mph S8.0 kmh S 8.0 mph12.9 kmh 29.92 in1013.2 mb 0.00 in0.0 mm 0.00 in0.0 mm 0.00 in0.0 mm
01:30 AM 73.8°F23.2°C 68.0°F20.0°C 83% 5.0 mph SW8.0 kmh SW 8.0 mph12.9 kmh 29.92 in1013.2 mb 0.00 in0.0 mm 0.00 in0.0 mm 0.00 in0.0 mm
01:35 AM 73.9°F23.3°C 68.0°F20.0°C 83% 2.0 mph S3.2 kmh S 7.0 mph11.3 kmh 29.92 in1013.2 mb 0.00 in0.0 mm 0.00 in0.0 mm 0.00 in0.0 mm
01:40 AM 73.8°F23.2°C 68.0°F20.0°C 83% 5.0 mph SW8.0 kmh SW 8.0 mph12.9 kmh 29.92 in1013.2 mb 0.00 in0.0 mm 0.00 in0.0 mm 0.00 in0.0 mm
01:45 AM 73.7°F23.2°C 68.0°F20.0°C 83% 4.0 mph SSW6.4 kmh SSW 8.0 mph12.9 kmh 29.92 in1013.2 mb 0.00 in0.0 mm 0.00 in0.0 mm 0.00 in0.0 mm
01:50 AM 73.6°F23.1°C 68.0°F20.0°C 83% 5.0 mph SW8.0 kmh SW 7.0 mph11.3 kmh 29.92 in1013.2 mb 0.00 in0.0 mm 0.00 in0.0 mm 0.00 in0.0 mm
01:55 AM 73.7°F23.2°C 68.0°F20.0°C 83% 4.0 mph S6.4 kmh S 7.0 mph11.3 kmh 29.92 in1013.2 mb 0.00 in0.0 mm 0.00 in0.0 mm 0.00 in0.0 mm
02:00 AM 73.6°F23.1°C 68.0°F20.0°C 83% 5.0 mph S8.0 kmh S 7.0 mph11.3 kmh 29.91 in1012.9 mb 0.00 in0.0 mm 0.00 in0.0 mm 0.00 in0.0 mm
02:05 AM 73.6°F23.1°C 69.0°F20.6°C 84% 5.0 mph S8.0 kmh S 8.0 mph12.9 kmh 29.91 in1012.9 mb 0.00 in0.0 mm 0.00 in0.0 mm 0.00 in0.0 mm
02:10 AM 73.5°F23.1°C 68.0°F20.0°C 84% 6.0 mph SSW9.7 kmh SSW 8.0 mph12.9 kmh 29.92 in1013.2 mb 0.00 in0.0 mm 0.00 in0.0 mm 0.00 in0.0 mm
02:15 AM 73.5°F23.1°C 68.0°F20.0°C 84% 5.0 mph SW8.0 kmh SW 8.0 mph12.9 kmh 29.92 in1013.2 mb 0.00 in0.0 mm 0.00 in0.0 mm 0.00 in0.0 mm
02:20 AM 73.5°F23.1°C 68.0°F20.0°C 84% 3.0 mph NW4.8 kmh NW 7.0 mph11.3 kmh 29.92 in1013.2 mb 0.00 in0.0 mm 0.00 in0.0 mm 0.00 in0.0 mm
02:25 AM 73.4°F23.0°C 68.0°F20.0°C 84% 8.0 mph SW12.9 kmh SW 8.0 mph12.9 kmh 29.92 in1013.2 mb 0.00 in0.0 mm 0.00 in0.0 mm 0.00 in0.0 mm
02:30 AM 73.4°F23.0°C 68.0°F20.0°C 84% 6.0 mph SW9.7 kmh SW 8.0 mph12.9 kmh 29.92 in1013.2 mb 0.00 in0.0 mm 0.00 in0.0 mm 0.00 in0.0 mm
02:35 AM 73.3°F22.9°C 68.0°F20.0°C 84% 5.0 mph SW8.0 kmh SW 8.0 mph12.9 kmh 29.92 in1013.2 mb 0.00 in0.0 mm 0.00 in0.0 mm 0.00 in0.0 mm
02:40 AM 73.3°F22.9°C 68.0°F20.0°C 84% 2.0 mph SSW3.2 kmh SSW 6.0 mph9.7 kmh 29.91 in1012.9 mb 0.00 in0.0 mm 0.00 in0.0 mm 0.00 in0.0 mm
02:45 AM 73.3°F22.9°C 68.0°F20.0°C 84% 2.0 mph SW3.2 kmh SW 7.0 mph11.3 kmh 29.92 in1013.2 mb 0.00 in0.0 mm 0.00 in0.0 mm 0.00 in0.0 mm
02:50 AM 73.2°F22.9°C 68.0°F20.0°C 84% 5.0 mph SSE8.0 kmh SSE 7.0 mph11.3 kmh 29.92 in1013.2 mb 0.00 in0.0 mm 0.00 in0.0 mm 0.00 in0.0 mm
02:55 AM 73.2°F22.9°C 68.0°F20.0°C 84% 1.0 mph SW1.6 kmh SW 8.0 mph12.9 kmh 29.92 in1013.2 mb 0.00 in0.0 mm 0.00 in0.0 mm 0.00 in0.0 mm
03:00 AM 73.2°F22.9°C 69.0°F20.6°C 85% 6.0 mph SW9.7 kmh SW 8.0 mph12.9 kmh 29.91 in1012.9 mb 0.00 in0.0 mm 0.00 in0.0 mm 0.00 in0.0 mm
03:05 AM 73.3°F22.9°C 69.0°F20.6°C 85% 4.0 mph S6.4 kmh S 7.0 mph11.3 kmh 29.92 in1013.2 mb 0.00 in0.0 mm 0.00 in0.0 mm 0.00 in0.0 mm
03:10 AM 73.2°F22.9°C 69.0°F20.6°C 85% 2.0 mph S3.2 kmh S 7.0 mph11.3 kmh 29.92 in1013.2 mb 0.00 in0.0 mm 0.00 in0.0 mm 0.00 in0.0 mm
03:15 AM 73.2°F22.9°C 69.0°F20.6°C 85% 4.0 mph SW6.4 kmh SW 7.0 mph11.3 kmh 29.92 in1013.2 mb 0.00 in0.0 mm 0.00 in0.0 mm 0.00 in0.0 mm
03:20 AM 73.2°F22.9°C 69.0°F20.6°C 85% 2.0 mph SSW3.2 kmh SSW 8.0 mph12.9 kmh 29.92 in1013.2 mb 0.00 in0.0 mm 0.00 in0.0 mm 0.00 in0.0 mm
03:25 AM 73.3°F22.9°C 69.0°F20.6°C 85% 2.0 mph SSW3.2 kmh SSW 8.0 mph12.9 kmh 29.92 in1013.2 mb 0.00 in0.0 mm 0.00 in0.0 mm 0.00 in0.0 mm
03:30 AM 73.2°F22.9°C 69.0°F20.6°C 85% 1.0 mph S1.6 kmh S 6.0 mph9.7 kmh 29.92 in1013.2 mb 0.00 in0.0 mm 0.00 in0.0 mm 0.00 in0.0 mm
03:35 AM 73.2°F22.9°C 69.0°F20.6°C 85% 2.0 mph S3.2 kmh S 7.0 mph11.3 kmh 29.92 in1013.2 mb 0.00 in0.0 mm 0.00 in0.0 mm 0.00 in0.0 mm
03:40 AM 73.2°F22.9°C 69.0°F20.6°C 85% 1.0 mph SW1.6 kmh SW 7.0 mph11.3 kmh 29.92 in1013.2 mb 0.00 in0.0 mm 0.00 in0.0 mm 0.00 in0.0 mm
03:45 AM 73.2°F22.9°C 69.0°F20.6°C 85% 2.0 mph SE3.2 kmh SE 9.0 mph14.5 kmh 29.92 in1013.2 mb 0.00 in0.0 mm 0.00 in0.0 mm 0.00 in0.0 mm
03:50 AM 73.3°F22.9°C 69.0°F20.6°C 85% 4.0 mph S6.4 kmh S 9.0 mph14.5 kmh 29.92 in1013.2 mb 0.00 in0.0 mm 0.00 in0.0 mm 0.00 in0.0 mm
03:55 AM 73.3°F22.9°C 69.0°F20.6°C 85% 3.0 mph S4.8 kmh S 9.0 mph14.5 kmh 29.92 in1013.2 mb 0.00 in0.0 mm 0.00 in0.0 mm 0.00 in0.0 mm
04:00 AM 73.2°F22.9°C 69.0°F20.6°C 85% 2.0 mph SW3.2 kmh SW 9.0 mph14.5 kmh 29.92 in1013.2 mb 0.00 in0.0 mm 0.00 in0.0 mm 0.00 in0.0 mm
04:05 AM 73.2°F22.9°C 69.0°F20.6°C 85% 3.0 mph S4.8 kmh S 9.0 mph14.5 kmh 29.93 in1013.5 mb 0.00 in0.0 mm 0.00 in0.0 mm 0.00 in0.0 mm
04:10 AM 73.3°F22.9°C 69.0°F20.6°C 85% 1.0 mph SSW1.6 kmh SSW 10.0 mph16.1 kmh 29.93 in1013.5 mb 0.00 in0.0 mm 0.00 in0.0 mm 0.00 in0.0 mm
04:15 AM 73.3°F22.9°C 69.0°F20.6°C 86% 4.0 mph SW6.4 kmh SW 12.0 mph19.3 kmh 29.93 in1013.5 mb 0.00 in0.0 mm 0.00 in0.0 mm 0.00 in0.0 mm
04:20 AM 73.3°F22.9°C 69.0°F20.6°C 86% 4.0 mph WSW6.4 kmh WSW 12.0 mph19.3 kmh 29.93 in1013.5 mb 0.00 in0.0 mm 0.00 in0.0 mm 0.00 in0.0 mm
04:25 AM 73.2°F22.9°C 69.0°F20.6°C 86% 4.0 mph SW6.4 kmh SW 9.0 mph14.5 kmh 29.93 in1013.5 mb 0.00 in0.0 mm 0.00 in0.0 mm 0.00 in0.0 mm
04:30 AM 73.2°F22.9°C 69.0°F20.6°C 86% 3.0 mph SSE4.8 kmh SSE 7.0 mph11.3 kmh 29.93 in1013.5 mb 0.00 in0.0 mm 0.00 in0.0 mm 0.00 in0.0 mm
04:35 AM 73.2°F22.9°C 69.0°F20.6°C 86% 1.0 mph SE1.6 kmh SE 9.0 mph14.5 kmh 29.93 in1013.5 mb 0.00 in0.0 mm 0.00 in0.0 mm 0.00 in0.0 mm
04:40 AM 73.3°F22.9°C 69.0°F20.6°C 86% 1.0 mph SSE1.6 kmh SSE 9.0 mph14.5 kmh 29.93 in1013.5 mb 0.00 in0.0 mm 0.00 in0.0 mm 0.00 in0.0 mm
04:45 AM 73.2°F22.9°C 69.0°F20.6°C 86% 4.0 mph SSW6.4 kmh SSW 8.0 mph12.9 kmh 29.93 in1013.5 mb 0.00 in0.0 mm 0.00 in0.0 mm 0.00 in0.0 mm
04:50 AM 73.2°F22.9°C 69.0°F20.6°C 86% 1.0 mph SW1.6 kmh SW 9.0 mph14.5 kmh 29.93 in1013.5 mb 0.00 in0.0 mm 0.00 in0.0 mm 0.00 in0.0 mm
04:55 AM 73.2°F22.9°C 69.0°F20.6°C 86% 3.0 mph S4.8 kmh S 9.0 mph14.5 kmh 29.93 in1013.5 mb 0.00 in0.0 mm 0.00 in0.0 mm 0.00 in0.0 mm
05:00 AM 73.3°F22.9°C 69.0°F20.6°C 86% 5.0 mph SW8.0 kmh SW 8.0 mph12.9 kmh 29.93 in1013.5 mb 0.00 in0.0 mm 0.00 in0.0 mm 0.00 in0.0 mm
05:05 AM 73.3°F22.9°C 69.0°F20.6°C 86% 6.0 mph S9.7 kmh S 11.0 mph17.7 kmh 29.93 in1013.5 mb 0.00 in0.0 mm 0.00 in0.0 mm 0.00 in0.0 mm
05:10 AM 73.5°F23.1°C 69.0°F20.6°C 86% 6.0 mph SW9.7 kmh SW 11.0 mph17.7 kmh 29.93 in1013.5 mb 0.00 in0.0 mm 0.00 in0.0 mm 0.00 in0.0 mm
05:15 AM 73.4°F23.0°C 69.0°F20.6°C 86% 1.0 mph S1.6 kmh S 11.0 mph17.7 kmh 29.93 in1013.5 mb 0.00 in0.0 mm 0.00 in0.0 mm 0.00 in0.0 mm
05:20 AM 73.5°F23.1°C 69.0°F20.6°C 86% 5.0 mph SW8.0 kmh SW 8.0 mph12.9 kmh 29.93 in1013.5 mb 0.00 in0.0 mm 0.00 in0.0 mm 0.00 in0.0 mm
05:25 AM 73.5°F23.1°C 69.0°F20.6°C 86% 4.0 mph SE6.4 kmh SE 8.0 mph12.9 kmh 29.93 in1013.5 mb 0.00 in0.0 mm 0.00 in0.0 mm 0.00 in0.0 mm
05:30 AM 73.5°F23.1°C 70.0°F21.1°C 87% 2.0 mph SW3.2 kmh SW 8.0 mph12.9 kmh 29.93 in1013.5 mb 0.00 in0.0 mm 0.00 in0.0 mm 0.00 in0.0 mm
05:35 AM 73.6°F23.1°C 70.0°F21.1°C 87% 1.0 mph S1.6 kmh S 8.0 mph12.9 kmh 29.93 in1013.5 mb 0.00 in0.0 mm 0.00 in0.0 mm 0.00 in0.0 mm
05:40 AM 73.7°F23.2°C 70.0°F21.1°C 87% 1.0 mph S1.6 kmh S 7.0 mph11.3 kmh 29.93 in1013.5 mb 0.00 in0.0 mm 0.00 in0.0 mm 0.00 in0.0 mm
05:45 AM 73.8°F23.2°C 70.0°F21.1°C 87% 2.0 mph S3.2 kmh S 7.0 mph11.3 kmh 29.93 in1013.5 mb 0.00 in0.0 mm 0.00 in0.0 mm 0.00 in0.0 mm
05:50 AM 74.0°F23.3°C 70.0°F21.1°C 87% 6.0 mph SW9.7 kmh SW 8.0 mph12.9 kmh 29.93 in1013.5 mb 0.00 in0.0 mm 0.00 in0.0 mm 0.00 in0.0 mm
05:55 AM 74.1°F23.4°C 70.0°F21.1°C 87% 3.0 mph S4.8 kmh S 8.0 mph12.9 kmh 29.94 in1013.9 mb 0.00 in0.0 mm 0.00 in0.0 mm 0.00 in0.0 mm
06:00 AM 74.2°F23.4°C 70.0°F21.1°C 87% 2.0 mph S3.2 kmh S 9.0 mph14.5 kmh 29.94 in1013.9 mb 0.00 in0.0 mm 0.00 in0.0 mm 0.00 in0.0 mm
06:05 AM 74.3°F23.5°C 70.0°F21.1°C 87% 5.0 mph S8.0 kmh S 6.0 mph9.7 kmh 29.94 in1013.9 mb 0.00 in0.0 mm 0.00 in0.0 mm 0.00 in0.0 mm
06:10 AM 74.5°F23.6°C 71.0°F21.7°C 87% 4.0 mph SSW6.4 kmh SSW 6.0 mph9.7 kmh 29.94 in1013.9 mb 0.00 in0.0 mm 0.00 in0.0 mm 0.00 in0.0 mm
06:15 AM 74.7°F23.7°C 71.0°F21.7°C 87% 2.0 mph S3.2 kmh S 9.0 mph14.5 kmh 29.94 in1013.9 mb 0.00 in0.0 mm 0.00 in0.0 mm 0.00 in0.0 mm
06:20 AM 74.8°F23.8°C 71.0°F21.7°C 87% Calm Calm 9.0 mph14.5 kmh 29.94 in1013.9 mb 0.00 in0.0 mm 0.00 in0.0 mm 0.00 in0.0 mm
06:25 AM 74.9°F23.8°C 71.0°F21.7°C 87% 2.0 mph W3.2 kmh W 9.0 mph14.5 kmh 29.95 in1014.2 mb 0.00 in0.0 mm 0.00 in0.0 mm 0.00 in0.0 mm
06:30 AM 75.1°F23.9°C 71.0°F21.7°C 87% 4.0 mph SW6.4 kmh SW 7.0 mph11.3 kmh 29.95 in1014.2 mb 0.00 in0.0 mm 0.00 in0.0 mm 0.00 in0.0 mm
06:35 AM 75.4°F24.1°C 71.0°F21.7°C 87% 1.0 mph WNW1.6 kmh WNW 8.0 mph12.9 kmh 29.95 in1014.2 mb 0.00 in0.0 mm 0.00 in0.0 mm 0.00 in0.0 mm
06:40 AM 75.7°F24.3°C 72.0°F22.2°C 87% 2.0 mph S3.2 kmh S 8.0 mph12.9 kmh 29.95 in1014.2 mb 0.00 in0.0 mm 0.00 in0.0 mm 0.00 in0.0 mm
06:45 AM 75.8°F24.3°C 72.0°F22.2°C 87% 1.0 mph S1.6 kmh S 7.0 mph11.3 kmh 29.95 in1014.2 mb 0.00 in0.0 mm 0.00 in0.0 mm 0.00 in0.0 mm
06:50 AM 76.0°F24.4°C 72.0°F22.2°C 87% 5.0 mph SSW8.0 kmh SSW 6.0 mph9.7 kmh 29.95 in1014.2 mb 0.00 in0.0 mm 0.00 in0.0 mm 0.00 in0.0 mm
06:55 AM 76.2°F24.6°C 72.0°F22.2°C 87% 2.0 mph SSW3.2 kmh SSW 7.0 mph11.3 kmh 29.95 in1014.2 mb 0.00 in0.0 mm 0.00 in0.0 mm 0.00 in0.0 mm
07:00 AM 76.6°F24.8°C 73.0°F22.8°C 87% 4.0 mph SW6.4 kmh SW 8.0 mph12.9 kmh 29.95 in1014.2 mb 0.00 in0.0 mm 0.00 in0.0 mm 0.00 in0.0 mm
07:05 AM 76.9°F24.9°C 73.0°F22.8°C 87% 4.0 mph SW6.4 kmh SW 8.0 mph12.9 kmh 29.95 in1014.2 mb 0.00 in0.0 mm 0.00 in0.0 mm 0.00 in0.0 mm
07:10 AM 77.2°F25.1°C 73.0°F22.8°C 87% Calm Calm 7.0 mph11.3 kmh 29.95 in1014.2 mb 0.00 in0.0 mm 0.00 in0.0 mm 0.00 in0.0 mm
07:15 AM 77.6°F25.3°C 74.0°F23.3°C 87% 2.0 mph SSW3.2 kmh SSW 6.0 mph9.7 kmh 29.95 in1014.2 mb 0.00 in0.0 mm 0.00 in0.0 mm 0.00 in0.0 mm
07:20 AM 78.1°F25.6°C 74.0°F23.3°C 86% 2.0 mph SW3.2 kmh SW 6.0 mph9.7 kmh 29.96 in1014.6 mb 0.00 in0.0 mm 0.00 in0.0 mm 0.00 in0.0 mm
07:25 AM 78.4°F25.8°C 74.0°F23.3°C 86% 5.0 mph WSW8.0 kmh WSW 7.0 mph11.3 kmh 29.96 in1014.6 mb 0.00 in0.0 mm 0.00 in0.0 mm 0.00 in0.0 mm
07:30 AM 78.8°F26.0°C 74.0°F23.3°C 86% 5.0 mph S8.0 kmh S 7.0 mph11.3 kmh 29.96 in1014.6 mb 0.00 in0.0 mm 0.00 in0.0 mm 0.00 in0.0 mm
07:35 AM 79.1°F26.2°C 74.0°F23.3°C 85% 1.0 mph WSW1.6 kmh WSW 7.0 mph11.3 kmh 29.96 in1014.6 mb 0.00 in0.0 mm 0.00 in0.0 mm 0.00 in0.0 mm
07:40 AM 79.4°F26.3°C 75.0°F23.9°C 85% 1.0 mph SSW1.6 kmh SSW 6.0 mph9.7 kmh 29.96 in1014.6 mb 0.00 in0.0 mm 0.00 in0.0 mm 0.00 in0.0 mm
07:45 AM 79.7°F26.5°C 75.0°F23.9°C 84% 1.0 mph SW1.6 kmh SW 5.0 mph8.0 kmh 29.96 in1014.6 mb 0.00 in0.0 mm 0.00 in0.0 mm 0.00 in0.0 mm
07:50 AM 80.0°F26.7°C 74.0°F23.3°C 83% 1.0 mph S1.6 kmh S 6.0 mph9.7 kmh 29.96 in1014.6 mb 0.00 in0.0 mm 0.00 in0.0 mm 0.00 in0.0 mm
07:55 AM 80.4°F26.9°C 75.0°F23.9°C 82% 1.0 mph S1.6 kmh S 6.0 mph9.7 kmh 29.96 in1014.6 mb 0.00 in0.0 mm 0.00 in0.0 mm 0.00 in0.0 mm
08:00 AM 80.9°F27.2°C 75.0°F23.9°C 81% 2.0 mph SSW3.2 kmh SSW 6.0 mph9.7 kmh 29.96 in1014.6 mb 0.00 in0.0 mm 0.00 in0.0 mm 0.00 in0.0 mm
08:05 AM 81.3°F27.4°C 75.0°F23.9°C 80% 1.0 mph SW1.6 kmh SW 7.0 mph11.3 kmh 29.96 in1014.6 mb 0.00 in0.0 mm 0.00 in0.0 mm 0.00 in0.0 mm
08:10 AM 81.5°F27.5°C 74.0°F23.3°C 79% 2.0 mph W3.2 kmh W 7.0 mph11.3 kmh 29.96 in1014.6 mb 0.00 in0.0 mm 0.00 in0.0 mm 0.00 in0.0 mm
08:15 AM 82.1°F27.8°C 74.0°F23.3°C 77% 6.0 mph SW9.7 kmh SW 7.0 mph11.3 kmh 29.96 in1014.6 mb 0.00 in0.0 mm 0.00 in0.0 mm 0.00 in0.0 mm
08:20 AM 82.8°F28.2°C 75.0°F23.9°C 76% 3.0 mph S4.8 kmh S 9.0 mph14.5 kmh 29.96 in1014.6 mb 0.00 in0.0 mm 0.00 in0.0 mm 0.00 in0.0 mm
08:25 AM 83.6°F28.7°C 74.0°F23.3°C 73% 4.0 mph S6.4 kmh S 9.0 mph14.5 kmh 29.96 in1014.6 mb 0.00 in0.0 mm 0.00 in0.0 mm 0.00 in0.0 mm
08:30 AM 84.3°F29.1°C 75.0°F23.9°C 73% 3.0 mph WSW4.8 kmh WSW 9.0 mph14.5 kmh 29.96 in1014.6 mb 0.00 in0.0 mm 0.00 in0.0 mm 0.00 in0.0 mm
08:35 AM 85.0°F29.4°C 75.0°F23.9°C 71% 2.0 mph WSW3.2 kmh WSW 7.0 mph11.3 kmh 29.96 in1014.6 mb 0.00 in0.0 mm 0.00 in0.0 mm 0.00 in0.0 mm
08:40 AM 85.4°F29.7°C 74.0°F23.3°C 68% 5.0 mph S8.0 kmh S 8.0 mph12.9 kmh 29.96 in1014.6 mb 0.00 in0.0 mm 0.00 in0.0 mm 0.00 in0.0 mm
08:45 AM 85.8°F29.9°C 74.0°F23.3°C 68% 2.0 mph WNW3.2 kmh WNW 8.0 mph12.9 kmh 29.96 in1014.6 mb 0.00 in0.0 mm 0.00 in0.0 mm 0.00 in0.0 mm
08:50 AM 86.5°F30.3°C 75.0°F23.9°C 68% 2.0 mph SW3.2 kmh SW 7.0 mph11.3 kmh 29.96 in1014.6 mb 0.00 in0.0 mm 0.00 in0.0 mm 0.00 in0.0 mm
08:55 AM 87.2°F30.7°C 75.0°F23.9°C 67% 5.0 mph S8.0 kmh S 7.0 mph11.3 kmh 29.96 in1014.6 mb 0.00 in0.0 mm 0.00 in0.0 mm 0.00 in0.0 mm
09:00 AM 87.7°F30.9°C 75.0°F23.9°C 67% Calm Calm 6.0 mph9.7 kmh 29.96 in1014.6 mb 0.00 in0.0 mm 0.00 in0.0 mm 0.00 in0.0 mm
09:05 AM 88.0°F31.1°C 75.0°F23.9°C 65% 2.0 mph S3.2 kmh S 6.0 mph9.7 kmh 29.96 in1014.6 mb 0.00 in0.0 mm 0.00 in0.0 mm 0.00 in0.0 mm
09:10 AM 88.4°F31.3°C 75.0°F23.9°C 65% 2.0 mph SSW3.2 kmh SSW 6.0 mph9.7 kmh 29.96 in1014.6 mb 0.00 in0.0 mm 0.00 in0.0 mm 0.00 in0.0 mm
09:15 AM 88.8°F31.6°C 76.0°F24.4°C 66% 2.0 mph SW3.2 kmh SW 6.0 mph9.7 kmh 29.96 in1014.6 mb 0.00 in0.0 mm 0.00 in0.0 mm 0.00 in0.0 mm
09:20 AM 89.6°F32.0°C 76.0°F24.4°C 64% 5.0 mph WSW8.0 kmh WSW 7.0 mph11.3 kmh 29.96 in1014.6 mb 0.00 in0.0 mm 0.00 in0.0 mm 0.00 in0.0 mm
09:25 AM 89.6°F32.0°C 75.0°F23.9°C 63% 5.0 mph NW8.0 kmh NW 7.0 mph11.3 kmh 29.96 in1014.6 mb 0.00 in0.0 mm 0.00 in0.0 mm 0.00 in0.0 mm
09:30 AM 89.6°F32.0°C 75.0°F23.9°C 62% 1.0 mph S1.6 kmh S 6.0 mph9.7 kmh 29.96 in1014.6 mb 0.00 in0.0 mm 0.00 in0.0 mm 0.00 in0.0 mm
09:35 AM 90.1°F32.3°C 75.0°F23.9°C 62% 1.0 mph S1.6 kmh S 6.0 mph9.7 kmh 29.96 in1014.6 mb 0.00 in0.0 mm 0.00 in0.0 mm 0.00 in0.0 mm
09:40 AM 90.5°F32.5°C 75.0°F23.9°C 61% 3.0 mph SW4.8 kmh SW 7.0 mph11.3 kmh 29.96 in1014.6 mb 0.00 in0.0 mm 0.00 in0.0 mm 0.00 in0.0 mm
09:45 AM 90.9°F32.7°C 76.0°F24.4°C 61% 1.0 mph WSW1.6 kmh WSW 8.0 mph12.9 kmh 29.96 in1014.6 mb 0.00 in0.0 mm 0.00 in0.0 mm 0.00 in0.0 mm
09:50 AM 91.3°F32.9°C 75.0°F23.9°C 59% 3.0 mph S4.8 kmh S 8.0 mph12.9 kmh 29.96 in1014.6 mb 0.00 in0.0 mm 0.00 in0.0 mm 0.00 in0.0 mm
09:55 AM 91.6°F33.1°C 75.0°F23.9°C 58% 2.0 mph SW3.2 kmh SW 8.0 mph12.9 kmh 29.96 in1014.6 mb 0.00 in0.0 mm 0.00 in0.0 mm 0.00 in0.0 mm
10:00 AM 91.7°F33.2°C 74.0°F23.3°C 57% 2.0 mph SE3.2 kmh SE 8.0 mph12.9 kmh 29.96 in1014.6 mb 0.00 in0.0 mm 0.00 in0.0 mm 0.00 in0.0 mm
10:05 AM 91.8°F33.2°C 76.0°F24.4°C 60% Calm Calm 6.0 mph9.7 kmh 29.96 in1014.6 mb 0.00 in0.0 mm 0.00 in0.0 mm 0.00 in0.0 mm
10:10 AM 91.9°F33.3°C 75.0°F23.9°C 58% 5.0 mph SSW8.0 kmh SSW 8.0 mph12.9 kmh 29.96 in1014.6 mb 0.00 in0.0 mm 0.00 in0.0 mm 0.00 in0.0 mm
10:15 AM 92.0°F33.3°C 75.0°F23.9°C 57% 4.0 mph WSW6.4 kmh WSW 8.0 mph12.9 kmh 29.96 in1014.6 mb 0.00 in0.0 mm 0.00 in0.0 mm 0.00 in0.0 mm
10:20 AM 92.3°F33.5°C 75.0°F23.9°C 58% 2.0 mph S3.2 kmh S 8.0 mph12.9 kmh 29.96 in1014.6 mb 0.00 in0.0 mm 0.00 in0.0 mm 0.00 in0.0 mm
10:25 AM 92.8°F33.8°C 75.0°F23.9°C 57% 1.0 mph S1.6 kmh S 7.0 mph11.3 kmh 29.96 in1014.6 mb 0.00 in0.0 mm 0.00 in0.0 mm 0.00 in0.0 mm
10:30 AM 93.1°F33.9°C 75.0°F23.9°C 56% 4.0 mph S6.4 kmh S 7.0 mph11.3 kmh 29.95 in1014.2 mb 0.00 in0.0 mm 0.00 in0.0 mm 0.00 in0.0 mm
10:35 AM 93.1°F33.9°C 75.0°F23.9°C 56% 2.0 mph WSW3.2 kmh WSW 7.0 mph11.3 kmh 29.96 in1014.6 mb 0.00 in0.0 mm 0.00 in0.0 mm 0.00 in0.0 mm
10:40 AM 93.3°F34.1°C 76.0°F24.4°C 57% 1.0 mph WSW1.6 kmh WSW 7.0 mph11.3 kmh 29.95 in1014.2 mb 0.00 in0.0 mm 0.00 in0.0 mm 0.00 in0.0 mm
10:45 AM 93.6°F34.2°C 76.0°F24.4°C 57% 1.0 mph SE1.6 kmh SE 5.0 mph8.0 kmh 29.95 in1014.2 mb 0.00 in0.0 mm 0.00 in0.0 mm 0.00 in0.0 mm
10:50 AM 93.9°F34.4°C 76.0°F24.4°C 56% 2.0 mph SE3.2 kmh SE 6.0 mph9.7 kmh 29.95 in1014.2 mb 0.00 in0.0 mm 0.00 in0.0 mm 0.00 in0.0 mm
10:55 AM 93.5°F34.2°C 75.0°F23.9°C 56% 2.0 mph SSE3.2 kmh SSE 6.0 mph9.7 kmh 29.95 in1014.2 mb 0.00 in0.0 mm 0.00 in0.0 mm 0.00 in0.0 mm
11:00 AM 93.7°F34.3°C 75.0°F23.9°C 55% 5.0 mph SSW8.0 kmh SSW 7.0 mph11.3 kmh 29.95 in1014.2 mb 0.00 in0.0 mm 0.00 in0.0 mm 0.00 in0.0 mm
11:05 AM 93.9°F34.4°C 76.0°F24.4°C 56% 1.0 mph SSE1.6 kmh SSE 7.0 mph11.3 kmh 29.95 in1014.2 mb 0.00 in0.0 mm 0.00 in0.0 mm 0.00 in0.0 mm
11:10 AM 94.2°F34.6°C 76.0°F24.4°C 56% 2.0 mph SSW3.2 kmh SSW 7.0 mph11.3 kmh 29.95 in1014.2 mb 0.00 in0.0 mm 0.00 in0.0 mm 0.00 in0.0 mm
11:15 AM 94.3°F34.6°C 76.0°F24.4°C 56% 1.0 mph W1.6 kmh W 6.0 mph9.7 kmh 29.95 in1014.2 mb 0.00 in0.0 mm 0.00 in0.0 mm 0.00 in0.0 mm
11:20 AM 94.0°F34.4°C 76.0°F24.4°C 56% 5.0 mph S8.0 kmh S 6.0 mph9.7 kmh 29.95 in1014.2 mb 0.00 in0.0 mm 0.00 in0.0 mm 0.00 in0.0 mm
11:25 AM 93.2°F34.0°C 76.0°F24.4°C 57% 4.0 mph S6.4 kmh S 7.0 mph11.3 kmh 29.95 in1014.2 mb 0.00 in0.0 mm 0.00 in0.0 mm 0.00 in0.0 mm
11:30 AM 92.7°F33.7°C 76.0°F24.4°C 59% 5.0 mph S8.0 kmh S 7.0 mph11.3 kmh 29.95 in1014.2 mb 0.00 in0.0 mm 0.00 in0.0 mm 0.00 in0.0 mm
11:35 AM 92.0°F33.3°C 75.0°F23.9°C 58% 4.0 mph SSW6.4 kmh SSW 8.0 mph12.9 kmh 29.95 in1014.2 mb 0.00 in0.0 mm 0.00 in0.0 mm 0.00 in0.0 mm
11:40 AM 91.8°F33.2°C 76.0°F24.4°C 61% 2.0 mph S3.2 kmh S 8.0 mph12.9 kmh 29.95 in1014.2 mb 0.00 in0.0 mm 0.00 in0.0 mm 0.00 in0.0 mm
11:45 AM 91.5°F33.1°C 76.0°F24.4°C 60% 5.0 mph SSW8.0 kmh SSW 7.0 mph11.3 kmh 29.95 in1014.2 mb 0.00 in0.0 mm 0.00 in0.0 mm 0.00 in0.0 mm
11:50 AM 91.2°F32.9°C 75.0°F23.9°C 59% 1.0 mph SW1.6 kmh SW 7.0 mph11.3 kmh 29.95 in1014.2 mb 0.00 in0.0 mm 0.00 in0.0 mm 0.00 in0.0 mm
11:55 AM 90.9°F32.7°C 75.0°F23.9°C 60% 5.0 mph S8.0 kmh S 9.0 mph14.5 kmh 29.95 in1014.2 mb 0.00 in0.0 mm 0.00 in0.0 mm 0.00 in0.0 mm
12:00 PM 90.8°F32.7°C 75.0°F23.9°C 60% 4.0 mph SSE6.4 kmh SSE 12.0 mph19.3 kmh 29.95 in1014.2 mb 0.00 in0.0 mm 0.00 in0.0 mm 0.00 in0.0 mm
12:05 PM 90.8°F32.7°C 74.0°F23.3°C 59% Calm Calm 12.0 mph19.3 kmh 29.95 in1014.2 mb 0.00 in0.0 mm 0.00 in0.0 mm 0.00 in0.0 mm
12:10 PM 90.8°F32.7°C 74.0°F23.3°C 58% 1.0 mph SSE1.6 kmh SSE 9.0 mph14.5 kmh 29.95 in1014.2 mb 0.00 in0.0 mm 0.00 in0.0 mm 0.00 in0.0 mm
12:15 PM 91.1°F32.8°C 73.0°F22.8°C 56% 1.0 mph NW1.6 kmh NW 11.0 mph17.7 kmh 29.95 in1014.2 mb 0.00 in0.0 mm 0.00 in0.0 mm 0.00 in0.0 mm
12:20 PM 91.3°F32.9°C 74.0°F23.3°C 58% 2.0 mph SSE3.2 kmh SSE 11.0 mph17.7 kmh 29.95 in1014.2 mb 0.00 in0.0 mm 0.00 in0.0 mm 0.00 in0.0 mm
12:25 PM 91.7°F33.2°C 76.0°F24.4°C 60% 3.0 mph S4.8 kmh S 9.0 mph14.5 kmh 29.95 in1014.2 mb 0.00 in0.0 mm 0.00 in0.0 mm 0.00 in0.0 mm
12:30 PM 91.6°F33.1°C 75.0°F23.9°C 58% 6.0 mph S9.7 kmh S 8.0 mph12.9 kmh 29.95 in1014.2 mb 0.00 in0.0 mm 0.00 in0.0 mm 0.00 in0.0 mm
12:35 PM 91.5°F33.1°C 75.0°F23.9°C 59% 2.0 mph SSE3.2 kmh SSE 7.0 mph11.3 kmh 29.94 in1013.9 mb 0.00 in0.0 mm 0.00 in0.0 mm 0.00 in0.0 mm
12:40 PM 91.7°F33.2°C 75.0°F23.9°C 59% 5.0 mph SSW8.0 kmh SSW 7.0 mph11.3 kmh 29.95 in1014.2 mb 0.00 in0.0 mm 0.00 in0.0 mm 0.00 in0.0 mm
12:45 PM 91.7°F33.2°C 75.0°F23.9°C 59% 4.0 mph SSW6.4 kmh SSW 9.0 mph14.5 kmh 29.94 in1013.9 mb 0.00 in0.0 mm 0.00 in0.0 mm 0.00 in0.0 mm
12:50 PM 91.8°F33.2°C 75.0°F23.9°C 58% 4.0 mph SSE6.4 kmh SSE 10.0 mph16.1 kmh 29.94 in1013.9 mb 0.00 in0.0 mm 0.00 in0.0 mm 0.00 in0.0 mm
12:55 PM 91.6°F33.1°C 75.0°F23.9°C 58% 7.0 mph S11.3 kmh S 10.0 mph16.1 kmh 29.94 in1013.9 mb 0.00 in0.0 mm 0.00 in0.0 mm 0.00 in0.0 mm
01:00 PM 91.3°F32.9°C 74.0°F23.3°C 57% 6.0 mph SSE9.7 kmh SSE 12.0 mph19.3 kmh 29.94 in1013.9 mb 0.00 in0.0 mm 0.00 in0.0 mm 0.00 in0.0 mm
01:05 PM 91.2°F32.9°C 74.0°F23.3°C 57% 6.0 mph SSE9.7 kmh SSE 12.0 mph19.3 kmh 29.94 in1013.9 mb 0.00 in0.0 mm 0.00 in0.0 mm 0.00 in0.0 mm
01:10 PM 90.7°F32.6°C 73.0°F22.8°C 56% 2.0 mph SSE3.2 kmh SSE 11.0 mph17.7 kmh 29.94 in1013.9 mb 0.00 in0.0 mm 0.00 in0.0 mm 0.00 in0.0 mm
01:15 PM 90.6°F32.6°C 73.0°F22.8°C 57% 5.0 mph SW8.0 kmh SW 13.0 mph20.9 kmh 29.94 in1013.9 mb 0.00 in0.0 mm 0.00 in0.0 mm 0.00 in0.0 mm
01:20 PM 90.4°F32.4°C 74.0°F23.3°C 58% 7.0 mph SW11.3 kmh SW 13.0 mph20.9 kmh 29.94 in1013.9 mb 0.00 in0.0 mm 0.00 in0.0 mm 0.00 in0.0 mm
01:25 PM 90.5°F32.5°C 74.0°F23.3°C 59% 2.0 mph NW3.2 kmh NW 15.0 mph24.1 kmh 29.93 in1013.5 mb 0.00 in0.0 mm 0.00 in0.0 mm 0.00 in0.0 mm
01:30 PM 90.9°F32.7°C 74.0°F23.3°C 58% 2.0 mph S3.2 kmh S 15.0 mph24.1 kmh 29.93 in1013.5 mb 0.00 in0.0 mm 0.00 in0.0 mm 0.00 in0.0 mm
01:35 PM 91.1°F32.8°C 74.0°F23.3°C 57% 6.0 mph SSE9.7 kmh SSE 12.0 mph19.3 kmh 29.93 in1013.5 mb 0.00 in0.0 mm 0.00 in0.0 mm 0.00 in0.0 mm
01:40 PM 91.1°F32.8°C 74.0°F23.3°C 58% 1.0 mph SSE1.6 kmh SSE 11.0 mph17.7 kmh 29.93 in1013.5 mb 0.00 in0.0 mm 0.00 in0.0 mm 0.00 in0.0 mm
01:45 PM 91.2°F32.9°C 74.0°F23.3°C 58% 6.0 mph SW9.7 kmh SW 11.0 mph17.7 kmh 29.93 in1013.5 mb 0.00 in0.0 mm 0.00 in0.0 mm 0.00 in0.0 mm
01:50 PM 91.1°F32.8°C 74.0°F23.3°C 57% 3.0 mph SSW4.8 kmh SSW 9.0 mph14.5 kmh 29.93 in1013.5 mb 0.00 in0.0 mm 0.00 in0.0 mm 0.00 in0.0 mm
01:55 PM 91.1°F32.8°C 73.0°F22.8°C 56% 4.0 mph SSE6.4 kmh SSE 10.0 mph16.1 kmh 29.93 in1013.5 mb 0.00 in0.0 mm 0.00 in0.0 mm 0.00 in0.0 mm
02:00 PM 91.0°F32.8°C 74.0°F23.3°C 57% 5.0 mph S8.0 kmh S 12.0 mph19.3 kmh 29.93 in1013.5 mb 0.00 in0.0 mm 0.00 in0.0 mm 0.00 in0.0 mm
02:05 PM 90.9°F32.7°C 74.0°F23.3°C 58% 1.0 mph SSE1.6 kmh SSE 12.0 mph19.3 kmh 29.93 in1013.5 mb 0.00 in0.0 mm 0.00 in0.0 mm 0.00 in0.0 mm
02:10 PM 91.0°F32.8°C 74.0°F23.3°C 57% 8.0 mph E12.9 kmh E 8.0 mph12.9 kmh 29.93 in1013.5 mb 0.00 in0.0 mm 0.00 in0.0 mm 0.00 in0.0 mm
02:15 PM 90.8°F32.7°C 73.0°F22.8°C 56% 5.0 mph S8.0 kmh S 10.0 mph16.1 kmh 29.93 in1013.5 mb 0.00 in0.0 mm 0.00 in0.0 mm 0.00 in0.0 mm
02:20 PM 90.8°F32.7°C 73.0°F22.8°C 57% 7.0 mph SSW11.3 kmh SSW 10.0 mph16.1 kmh 29.92 in1013.2 mb 0.00 in0.0 mm 0.00 in0.0 mm 0.00 in0.0 mm
02:25 PM 90.8°F32.7°C 73.0°F22.8°C 56% 6.0 mph SE9.7 kmh SE 10.0 mph16.1 kmh 29.92 in1013.2 mb 0.00 in0.0 mm 0.00 in0.0 mm 0.00 in0.0 mm
02:30 PM 90.7°F32.6°C 73.0°F22.8°C 56% 8.0 mph SSE12.9 kmh SSE 13.0 mph20.9 kmh 29.92 in1013.2 mb 0.00 in0.0 mm 0.00 in0.0 mm 0.00 in0.0 mm
02:35 PM 90.5°F32.5°C 73.0°F22.8°C 56% 7.0 mph S11.3 kmh S 12.0 mph19.3 kmh 29.92 in1013.2 mb 0.00 in0.0 mm 0.00 in0.0 mm 0.00 in0.0 mm
02:40 PM 90.3°F32.4°C 73.0°F22.8°C 57% 7.0 mph SSW11.3 kmh SSW 14.0 mph22.5 kmh 29.92 in1013.2 mb 0.00 in0.0 mm 0.00 in0.0 mm 0.00 in0.0 mm
02:45 PM 90.2°F32.3°C 73.0°F22.8°C 57% 2.0 mph WSW3.2 kmh WSW 14.0 mph22.5 kmh 29.92 in1013.2 mb 0.00 in0.0 mm 0.00 in0.0 mm 0.00 in0.0 mm
02:50 PM 90.2°F32.3°C 73.0°F22.8°C 57% 6.0 mph SSW9.7 kmh SSW 14.0 mph22.5 kmh 29.92 in1013.2 mb 0.00 in0.0 mm 0.00 in0.0 mm 0.00 in0.0 mm
02:55 PM 90.2°F32.3°C 73.0°F22.8°C 57% 7.0 mph SSW11.3 kmh SSW 11.0 mph17.7 kmh 29.92 in1013.2 mb 0.00 in0.0 mm 0.00 in0.0 mm 0.00 in0.0 mm
03:00 PM 90.1°F32.3°C 73.0°F22.8°C 57% 1.0 mph SSE1.6 kmh SSE 13.0 mph20.9 kmh 29.92 in1013.2 mb 0.00 in0.0 mm 0.00 in0.0 mm 0.00 in0.0 mm
03:05 PM 90.1°F32.3°C 73.0°F22.8°C 57% 9.0 mph S14.5 kmh S 13.0 mph20.9 kmh 29.92 in1013.2 mb 0.00 in0.0 mm 0.00 in0.0 mm 0.00 in0.0 mm
03:10 PM 90.0°F32.2°C 73.0°F22.8°C 57% 5.0 mph S8.0 kmh S 9.0 mph14.5 kmh 29.91 in1012.9 mb 0.00 in0.0 mm 0.00 in0.0 mm 0.00 in0.0 mm
03:15 PM 89.9°F32.2°C 73.0°F22.8°C 57% 10.0 mph SSW16.1 kmh SSW 11.0 mph17.7 kmh 29.91 in1012.9 mb 0.00 in0.0 mm 0.00 in0.0 mm 0.00 in0.0 mm
03:20 PM 89.7°F32.1°C 72.0°F22.2°C 57% 8.0 mph SSW12.9 kmh SSW 11.0 mph17.7 kmh 29.91 in1012.9 mb 0.00 in0.0 mm 0.00 in0.0 mm 0.00 in0.0 mm
03:25 PM 89.5°F31.9°C 72.0°F22.2°C 57% 1.0 mph S1.6 kmh S 11.0 mph17.7 kmh 29.91 in1012.9 mb 0.00 in0.0 mm 0.00 in0.0 mm 0.00 in0.0 mm
03:30 PM 89.4°F31.9°C 72.0°F22.2°C 57% 9.0 mph SSE14.5 kmh SSE 10.0 mph16.1 kmh 29.91 in1012.9 mb 0.00 in0.0 mm 0.00 in0.0 mm 0.00 in0.0 mm
03:35 PM 89.3°F31.8°C 72.0°F22.2°C 56% 4.0 mph S6.4 kmh S 11.0 mph17.7 kmh 29.91 in1012.9 mb 0.00 in0.0 mm 0.00 in0.0 mm 0.00 in0.0 mm
03:40 PM 89.1°F31.7°C 71.0°F21.7°C 56% 4.0 mph S6.4 kmh S 12.0 mph19.3 kmh 29.91 in1012.9 mb 0.00 in0.0 mm 0.00 in0.0 mm 0.00 in0.0 mm
03:45 PM 89.0°F31.7°C 71.0°F21.7°C 56% 6.0 mph S9.7 kmh S 13.0 mph20.9 kmh 29.91 in1012.9 mb 0.00 in0.0 mm 0.00 in0.0 mm 0.00 in0.0 mm
03:50 PM 88.9°F31.6°C 71.0°F21.7°C 56% 11.0 mph S17.7 kmh S 13.0 mph20.9 kmh 29.91 in1012.9 mb 0.00 in0.0 mm 0.00 in0.0 mm 0.00 in0.0 mm
04:00 PM 88.4°F31.3°C 71.0°F21.7°C 56% 6.0 mph E9.7 kmh E 13.0 mph20.9 kmh 29.91 in1012.9 mb 0.00 in0.0 mm 0.00 in0.0 mm 0.00 in0.0 mm
04:05 PM 88.3°F31.3°C 71.0°F21.7°C 57% 9.0 mph S14.5 kmh S 12.0 mph19.3 kmh 29.91 in1012.9 mb 0.00 in0.0 mm 0.00 in0.0 mm 0.00 in0.0 mm
04:10 PM 88.2°F31.2°C 71.0°F21.7°C 57% 5.0 mph S8.0 kmh S 12.0 mph19.3 kmh 29.91 in1012.9 mb 0.00 in0.0 mm 0.00 in0.0 mm 0.00 in0.0 mm
04:15 PM 88.0°F31.1°C 71.0°F21.7°C 58% 1.0 mph SSW1.6 kmh SSW 12.0 mph19.3 kmh 29.91 in1012.9 mb 0.00 in0.0 mm 0.00 in0.0 mm 0.00 in0.0 mm
04:20 PM 87.8°F31.0°C 71.0°F21.7°C 58% 9.0 mph SW14.5 kmh SW 12.0 mph19.3 kmh 29.92 in1013.2 mb 0.00 in0.0 mm 0.00 in0.0 mm 0.00 in0.0 mm
04:25 PM 87.6°F30.9°C 70.0°F21.1°C 57% 10.0 mph SSW16.1 kmh SSW 12.0 mph19.3 kmh 29.91 in1012.9 mb 0.00 in0.0 mm 0.00 in0.0 mm 0.00 in0.0 mm
04:30 PM 87.5°F30.8°C 71.0°F21.7°C 58% 4.0 mph S6.4 kmh S 12.0 mph19.3 kmh 29.91 in1012.9 mb 0.00 in0.0 mm 0.00 in0.0 mm 0.00 in0.0 mm
04:35 PM 87.3°F30.7°C 71.0°F21.7°C 58% 4.0 mph WSW6.4 kmh WSW 13.0 mph20.9 kmh 29.91 in1012.9 mb 0.00 in0.0 mm 0.00 in0.0 mm 0.00 in0.0 mm
04:40 PM 87.1°F30.6°C 70.0°F21.1°C 58% 2.0 mph SSE3.2 kmh SSE 13.0 mph20.9 kmh 29.91 in1012.9 mb 0.00 in0.0 mm 0.00 in0.0 mm 0.00 in0.0 mm
04:45 PM 86.9°F30.5°C 70.0°F21.1°C 58% 7.0 mph S11.3 kmh S 15.0 mph24.1 kmh 29.91 in1012.9 mb 0.00 in0.0 mm 0.00 in0.0 mm 0.00 in0.0 mm
04:50 PM 86.6°F30.3°C 71.0°F21.7°C 59% 6.0 mph S9.7 kmh S 14.0 mph22.5 kmh 29.92 in1013.2 mb 0.00 in0.0 mm 0.00 in0.0 mm 0.00 in0.0 mm
04:55 PM 86.5°F30.3°C 71.0°F21.7°C 60% 4.0 mph S6.4 kmh S 14.0 mph22.5 kmh 29.91 in1012.9 mb 0.00 in0.0 mm 0.00 in0.0 mm 0.00 in0.0 mm
05:00 PM 86.1°F30.1°C 71.0°F21.7°C 60% 5.0 mph SW8.0 kmh SW 13.0 mph20.9 kmh 29.91 in1012.9 mb 0.00 in0.0 mm 0.00 in0.0 mm 0.00 in0.0 mm
05:05 PM 85.9°F29.9°C 70.0°F21.1°C 60% 5.0 mph S8.0 kmh S 12.0 mph19.3 kmh 29.91 in1012.9 mb 0.00 in0.0 mm 0.00 in0.0 mm 0.00 in0.0 mm
05:10 PM 85.7°F29.8°C 71.0°F21.7°C 61% 4.0 mph SSE6.4 kmh SSE 11.0 mph17.7 kmh 29.91 in1012.9 mb 0.00 in0.0 mm 0.00 in0.0 mm 0.00 in0.0 mm
05:15 PM 85.5°F29.7°C 70.0°F21.1°C 61% 5.0 mph SW8.0 kmh SW 11.0 mph17.7 kmh 29.91 in1012.9 mb 0.00 in0.0 mm 0.00 in0.0 mm 0.00 in0.0 mm
05:20 PM 85.4°F29.7°C 70.0°F21.1°C 61% 1.0 mph SSW1.6 kmh SSW 10.0 mph16.1 kmh 29.91 in1012.9 mb 0.00 in0.0 mm 0.00 in0.0 mm 0.00 in0.0 mm
05:25 PM 85.2°F29.6°C 71.0°F21.7°C 62% 5.0 mph SW8.0 kmh SW 11.0 mph17.7 kmh 29.91 in1012.9 mb 0.00 in0.0 mm 0.00 in0.0 mm 0.00 in0.0 mm
05:30 PM 85.0°F29.4°C 70.0°F21.1°C 62% 3.0 mph WSW4.8 kmh WSW 11.0 mph17.7 kmh 29.92 in1013.2 mb 0.00 in0.0 mm 0.00 in0.0 mm 0.00 in0.0 mm
05:35 PM 84.7°F29.3°C 70.0°F21.1°C 62% 7.0 mph WSW11.3 kmh WSW 10.0 mph16.1 kmh 29.91 in1012.9 mb 0.00 in0.0 mm 0.00 in0.0 mm 0.00 in0.0 mm
05:40 PM 84.5°F29.2°C 70.0°F21.1°C 62% 4.0 mph SSW6.4 kmh SSW 10.0 mph16.1 kmh 29.92 in1013.2 mb 0.00 in0.0 mm 0.00 in0.0 mm 0.00 in0.0 mm
05:45 PM 84.3°F29.1°C 70.0°F21.1°C 63% 1.0 mph SSW1.6 kmh SSW 10.0 mph16.1 kmh 29.92 in1013.2 mb 0.00 in0.0 mm 0.00 in0.0 mm 0.00 in0.0 mm
05:50 PM 84.1°F28.9°C 70.0°F21.1°C 62% 5.0 mph S8.0 kmh S 10.0 mph16.1 kmh 29.92 in1013.2 mb 0.00 in0.0 mm 0.00 in0.0 mm 0.00 in0.0 mm
05:55 PM 83.8°F28.8°C 70.0°F21.1°C 63% 5.0 mph SSW8.0 kmh SSW 11.0 mph17.7 kmh 29.92 in1013.2 mb 0.00 in0.0 mm 0.00 in0.0 mm 0.00 in0.0 mm
06:00 PM 83.7°F28.7°C 70.0°F21.1°C 63% 6.0 mph SW9.7 kmh SW 11.0 mph17.7 kmh 29.92 in1013.2 mb 0.00 in0.0 mm 0.00 in0.0 mm 0.00 in0.0 mm
06:05 PM 83.5°F28.6°C 70.0°F21.1°C 63% 3.0 mph S4.8 kmh S 11.0 mph17.7 kmh 29.92 in1013.2 mb 0.00 in0.0 mm 0.00 in0.0 mm 0.00 in0.0 mm
06:10 PM 83.2°F28.4°C 69.0°F20.6°C 63% 6.0 mph SW9.7 kmh SW 11.0 mph17.7 kmh 29.92 in1013.2 mb 0.00 in0.0 mm 0.00 in0.0 mm 0.00 in0.0 mm
06:15 PM 83.0°F28.3°C 70.0°F21.1°C 64% 7.0 mph SW11.3 kmh SW 10.0 mph16.1 kmh 29.92 in1013.2 mb 0.00 in0.0 mm 0.00 in0.0 mm 0.00 in0.0 mm
06:20 PM 82.8°F28.2°C 69.0°F20.6°C 64% 4.0 mph SSW6.4 kmh SSW 10.0 mph16.1 kmh 29.92 in1013.2 mb 0.00 in0.0 mm 0.00 in0.0 mm 0.00 in0.0 mm
06:25 PM 82.7°F28.2°C 70.0°F21.1°C 65% 4.0 mph S6.4 kmh S 11.0 mph17.7 kmh 29.93 in1013.5 mb 0.00 in0.0 mm 0.00 in0.0 mm 0.00 in0.0 mm
06:30 PM 82.5°F28.1°C 70.0°F21.1°C 65% 3.0 mph S4.8 kmh S 11.0 mph17.7 kmh 29.93 in1013.5 mb 0.00 in0.0 mm 0.00 in0.0 mm 0.00 in0.0 mm
06:35 PM 82.3°F27.9°C 69.0°F20.6°C 65% 4.0 mph ESE6.4 kmh ESE 11.0 mph17.7 kmh 29.93 in1013.5 mb 0.00 in0.0 mm 0.00 in0.0 mm 0.00 in0.0 mm
06:40 PM 82.1°F27.8°C 70.0°F21.1°C 66% 4.0 mph SSW6.4 kmh SSW 9.0 mph14.5 kmh 29.93 in1013.5 mb 0.00 in0.0 mm 0.00 in0.0 mm 0.00 in0.0 mm
06:45 PM 82.0°F27.8°C 70.0°F21.1°C 66% Calm Calm 9.0 mph14.5 kmh 29.93 in1013.5 mb 0.00 in0.0 mm 0.00 in0.0 mm 0.00 in0.0 mm
06:50 PM 81.8°F27.7°C 70.0°F21.1°C 67% 5.0 mph S8.0 kmh S 9.0 mph14.5 kmh 29.94 in1013.9 mb 0.00 in0.0 mm 0.00 in0.0 mm 0.00 in0.0 mm
06:55 PM 81.6°F27.6°C 70.0°F21.1°C 67% 6.0 mph WSW9.7 kmh WSW 9.0 mph14.5 kmh 29.94 in1013.9 mb 0.00 in0.0 mm 0.00 in0.0 mm 0.00 in0.0 mm
07:00 PM 81.3°F27.4°C 69.0°F20.6°C 67% 6.0 mph SSW9.7 kmh SSW 9.0 mph14.5 kmh 29.93 in1013.5 mb 0.00 in0.0 mm 0.00 in0.0 mm 0.00 in0.0 mm
07:05 PM 81.2°F27.3°C 69.0°F20.6°C 67% 1.0 mph SSE1.6 kmh SSE 8.0 mph12.9 kmh 29.94 in1013.9 mb 0.00 in0.0 mm 0.00 in0.0 mm 0.00 in0.0 mm
07:10 PM 81.1°F27.3°C 70.0°F21.1°C 68% 1.0 mph S1.6 kmh S 7.0 mph11.3 kmh 29.94 in1013.9 mb 0.00 in0.0 mm 0.00 in0.0 mm 0.00 in0.0 mm
07:15 PM 80.8°F27.1°C 69.0°F20.6°C 68% 4.0 mph SSW6.4 kmh SSW 8.0 mph12.9 kmh 29.94 in1013.9 mb 0.00 in0.0 mm 0.00 in0.0 mm 0.00 in0.0 mm
07:20 PM 80.6°F27.0°C 70.0°F21.1°C 69% 5.0 mph SW8.0 kmh SW 8.0 mph12.9 kmh 29.94 in1013.9 mb 0.00 in0.0 mm 0.00 in0.0 mm 0.00 in0.0 mm
07:25 PM 80.2°F26.8°C 70.0°F21.1°C 70% Calm Calm 9.0 mph14.5 kmh 29.94 in1013.9 mb 0.00 in0.0 mm 0.00 in0.0 mm 0.00 in0.0 mm
07:30 PM 80.1°F26.7°C 70.0°F21.1°C 70% 5.0 mph SW8.0 kmh SW 9.0 mph14.5 kmh 29.94 in1013.9 mb 0.00 in0.0 mm 0.00 in0.0 mm 0.00 in0.0 mm
07:35 PM 79.9°F26.6°C 70.0°F21.1°C 71% 6.0 mph S9.7 kmh S 9.0 mph14.5 kmh 29.94 in1013.9 mb 0.00 in0.0 mm 0.00 in0.0 mm 0.00 in0.0 mm
07:40 PM 79.7°F26.5°C 70.0°F21.1°C 71% 6.0 mph SSW9.7 kmh SSW 9.0 mph14.5 kmh 29.95 in1014.2 mb 0.00 in0.0 mm 0.00 in0.0 mm 0.00 in0.0 mm
07:45 PM 79.5°F26.4°C 70.0°F21.1°C 72% Calm Calm 9.0 mph14.5 kmh 29.94 in1013.9 mb 0.00 in0.0 mm 0.00 in0.0 mm 0.00 in0.0 mm
07:50 PM 79.4°F26.3°C 70.0°F21.1°C 72% Calm Calm 9.0 mph14.5 kmh 29.94 in1013.9 mb 0.00 in0.0 mm 0.00 in0.0 mm 0.00 in0.0 mm
07:55 PM 79.2°F26.2°C 70.0°F21.1°C 73% Calm Calm 9.0 mph14.5 kmh 29.94 in1013.9 mb 0.00 in0.0 mm 0.00 in0.0 mm 0.00 in0.0 mm
08:00 PM 79.0°F26.1°C 70.0°F21.1°C 73% 2.0 mph S3.2 kmh S 8.0 mph12.9 kmh 29.95 in1014.2 mb 0.00 in0.0 mm 0.00 in0.0 mm 0.00 in0.0 mm
08:05 PM 78.9°F26.1°C 70.0°F21.1°C 73% 1.0 mph WSW1.6 kmh WSW 8.0 mph12.9 kmh 29.95 in1014.2 mb 0.00 in0.0 mm 0.00 in0.0 mm 0.00 in0.0 mm
08:10 PM 78.7°F25.9°C 70.0°F21.1°C 74% 4.0 mph SSW6.4 kmh SSW 9.0 mph14.5 kmh 29.95 in1014.2 mb 0.00 in0.0 mm 0.00 in0.0 mm 0.00 in0.0 mm
08:15 PM 78.6°F25.9°C 70.0°F21.1°C 74% 9.0 mph SSW14.5 kmh SSW 10.0 mph16.1 kmh 29.95 in1014.2 mb 0.00 in0.0 mm 0.00 in0.0 mm 0.00 in0.0 mm
08:20 PM 78.4°F25.8°C 70.0°F21.1°C 75% 5.0 mph SW8.0 kmh SW 9.0 mph14.5 kmh 29.95 in1014.2 mb 0.00 in0.0 mm 0.00 in0.0 mm 0.00 in0.0 mm
08:25 PM 78.3°F25.7°C 70.0°F21.1°C 75% 5.0 mph S8.0 kmh S 9.0 mph14.5 kmh 29.95 in1014.2 mb 0.00 in0.0 mm 0.00 in0.0 mm 0.00 in0.0 mm
08:30 PM 78.1°F25.6°C 70.0°F21.1°C 76% 7.0 mph SW11.3 kmh SW 9.0 mph14.5 kmh 29.95 in1014.2 mb 0.00 in0.0 mm 0.00 in0.0 mm 0.00 in0.0 mm
08:35 PM 78.0°F25.6°C 70.0°F21.1°C 76% 1.0 mph SW1.6 kmh SW 11.0 mph17.7 kmh 29.95 in1014.2 mb 0.00 in0.0 mm 0.00 in0.0 mm 0.00 in0.0 mm
08:40 PM 77.9°F25.5°C 70.0°F21.1°C 77% 3.0 mph SSW4.8 kmh SSW 11.0 mph17.7 kmh 29.95 in1014.2 mb 0.00 in0.0 mm 0.00 in0.0 mm 0.00 in0.0 mm
08:45 PM 77.8°F25.4°C 70.0°F21.1°C 77% 3.0 mph SSW4.8 kmh SSW 11.0 mph17.7 kmh 29.95 in1014.2 mb 0.00 in0.0 mm 0.00 in0.0 mm 0.00 in0.0 mm
08:50 PM 77.7°F25.4°C 70.0°F21.1°C 77% 4.0 mph SW6.4 kmh SW 10.0 mph16.1 kmh 29.95 in1014.2 mb 0.00 in0.0 mm 0.00 in0.0 mm 0.00 in0.0 mm
08:55 PM 77.5°F25.3°C 70.0°F21.1°C 78% 1.0 mph SSW1.6 kmh SSW 9.0 mph14.5 kmh 29.95 in1014.2 mb 0.00 in0.0 mm 0.00 in0.0 mm 0.00 in0.0 mm
09:00 PM 77.5°F25.3°C 70.0°F21.1°C 78% 2.0 mph SSE3.2 kmh SSE 9.0 mph14.5 kmh 29.96 in1014.6 mb 0.00 in0.0 mm 0.00 in0.0 mm 0.00 in0.0 mm
09:05 PM 77.4°F25.2°C 70.0°F21.1°C 78% 2.0 mph S3.2 kmh S 9.0 mph14.5 kmh 29.96 in1014.6 mb 0.00 in0.0 mm 0.00 in0.0 mm 0.00 in0.0 mm
09:10 PM 77.2°F25.1°C 70.0°F21.1°C 78% Calm Calm 11.0 mph17.7 kmh 29.95 in1014.2 mb 0.00 in0.0 mm 0.00 in0.0 mm 0.00 in0.0 mm
09:15 PM 77.1°F25.1°C 70.0°F21.1°C 79% 6.0 mph SW9.7 kmh SW 11.0 mph17.7 kmh 29.95 in1014.2 mb 0.00 in0.0 mm 0.00 in0.0 mm 0.00 in0.0 mm
09:20 PM 77.0°F25.0°C 70.0°F21.1°C 79% 7.0 mph SSW11.3 kmh SSW 8.0 mph12.9 kmh 29.96 in1014.6 mb 0.00 in0.0 mm 0.00 in0.0 mm 0.00 in0.0 mm
09:25 PM 76.9°F24.9°C 70.0°F21.1°C 79% 4.0 mph S6.4 kmh S 8.0 mph12.9 kmh 29.96 in1014.6 mb 0.00 in0.0 mm 0.00 in0.0 mm 0.00 in0.0 mm
09:30 PM 76.7°F24.8°C 70.0°F21.1°C 79% 4.0 mph S6.4 kmh S 9.0 mph14.5 kmh 29.96 in1014.6 mb 0.00 in0.0 mm 0.00 in0.0 mm 0.00 in0.0 mm
09:35 PM 76.6°F24.8°C 70.0°F21.1°C 80% 7.0 mph S11.3 kmh S 9.0 mph14.5 kmh 29.96 in1014.6 mb 0.00 in0.0 mm 0.00 in0.0 mm 0.00 in0.0 mm
09:40 PM 76.6°F24.8°C 70.0°F21.1°C 80% 6.0 mph SSW9.7 kmh SSW 9.0 mph14.5 kmh 29.96 in1014.6 mb 0.00 in0.0 mm 0.00 in0.0 mm 0.00 in0.0 mm
09:45 PM 76.5°F24.7°C 70.0°F21.1°C 80% 3.0 mph S4.8 kmh S 9.0 mph14.5 kmh 29.96 in1014.6 mb 0.00 in0.0 mm 0.00 in0.0 mm 0.00 in0.0 mm
09:50 PM 76.4°F24.7°C 70.0°F21.1°C 80% 6.0 mph S9.7 kmh S 8.0 mph12.9 kmh 29.96 in1014.6 mb 0.00 in0.0 mm 0.00 in0.0 mm 0.00 in0.0 mm
09:55 PM 76.3°F24.6°C 70.0°F21.1°C 81% 5.0 mph S8.0 kmh S 8.0 mph12.9 kmh 29.96 in1014.6 mb 0.00 in0.0 mm 0.00 in0.0 mm 0.00 in0.0 mm
10:00 PM 76.2°F24.6°C 70.0°F21.1°C 81% Calm Calm 8.0 mph12.9 kmh 29.96 in1014.6 mb 0.00 in0.0 mm 0.00 in0.0 mm 0.00 in0.0 mm
10:05 PM 76.1°F24.5°C 70.0°F21.1°C 81% 3.0 mph S4.8 kmh S 8.0 mph12.9 kmh 29.96 in1014.6 mb 0.00 in0.0 mm 0.00 in0.0 mm 0.00 in0.0 mm
10:10 PM 76.1°F24.5°C 70.0°F21.1°C 81% Calm Calm 8.0 mph12.9 kmh 29.96 in1014.6 mb 0.00 in0.0 mm 0.00 in0.0 mm 0.00 in0.0 mm
10:15 PM 76.0°F24.4°C 70.0°F21.1°C 81% 1.0 mph S1.6 kmh S 6.0 mph9.7 kmh 29.96 in1014.6 mb 0.00 in0.0 mm 0.00 in0.0 mm 0.00 in0.0 mm
10:20 PM 75.9°F24.4°C 70.0°F21.1°C 81% 5.0 mph SW8.0 kmh SW 6.0 mph9.7 kmh 29.97 in1014.9 mb 0.00 in0.0 mm 0.00 in0.0 mm 0.00 in0.0 mm
10:25 PM 75.9°F24.4°C 70.0°F21.1°C 81% 2.0 mph S3.2 kmh S 7.0 mph11.3 kmh 29.97 in1014.9 mb 0.00 in0.0 mm 0.00 in0.0 mm 0.00 in0.0 mm
10:30 PM 75.8°F24.3°C 70.0°F21.1°C 81% 4.0 mph WSW6.4 kmh WSW 7.0 mph11.3 kmh 29.97 in1014.9 mb 0.00 in0.0 mm 0.00 in0.0 mm 0.00 in0.0 mm
10:35 PM 75.7°F24.3°C 70.0°F21.1°C 81% Calm Calm 6.0 mph9.7 kmh 29.97 in1014.9 mb 0.00 in0.0 mm 0.00 in0.0 mm 0.00 in0.0 mm
10:40 PM 75.6°F24.2°C 70.0°F21.1°C 82% 2.0 mph S3.2 kmh S 7.0 mph11.3 kmh 29.96 in1014.6 mb 0.00 in0.0 mm 0.00 in0.0 mm 0.00 in0.0 mm
10:45 PM 75.5°F24.2°C 70.0°F21.1°C 82% 6.0 mph S9.7 kmh S 7.0 mph11.3 kmh 29.96 in1014.6 mb 0.00 in0.0 mm 0.00 in0.0 mm 0.00 in0.0 mm
10:50 PM 75.5°F24.2°C 70.0°F21.1°C 82% 4.0 mph S6.4 kmh S 7.0 mph11.3 kmh 29.96 in1014.6 mb 0.00 in0.0 mm 0.00 in0.0 mm 0.00 in0.0 mm
10:55 PM 75.4°F24.1°C 70.0°F21.1°C 82% 5.0 mph SSW8.0 kmh SSW 7.0 mph11.3 kmh 29.96 in1014.6 mb 0.00 in0.0 mm 0.00 in0.0 mm 0.00 in0.0 mm
11:00 PM 75.3°F24.1°C 70.0°F21.1°C 82% 4.0 mph S6.4 kmh S 7.0 mph11.3 kmh 29.96 in1014.6 mb 0.00 in0.0 mm 0.00 in0.0 mm 0.00 in0.0 mm
11:05 PM 75.3°F24.1°C 70.0°F21.1°C 82% 5.0 mph SW8.0 kmh SW 7.0 mph11.3 kmh 29.96 in1014.6 mb 0.00 in0.0 mm 0.00 in0.0 mm 0.00 in0.0 mm
11:10 PM 75.2°F24.0°C 69.0°F20.6°C 82% Calm Calm 7.0 mph11.3 kmh 29.96 in1014.6 mb 0.00 in0.0 mm 0.00 in0.0 mm 0.00 in0.0 mm
11:15 PM 75.1°F23.9°C 69.0°F20.6°C 82% 2.0 mph S3.2 kmh S 7.0 mph11.3 kmh 29.97 in1014.9 mb 0.00 in0.0 mm 0.00 in0.0 mm 0.00 in0.0 mm
11:20 PM 75.1°F23.9°C 69.0°F20.6°C 82% 1.0 mph SSW1.6 kmh SSW 6.0 mph9.7 kmh 29.96 in1014.6 mb 0.00 in0.0 mm 0.00 in0.0 mm 0.00 in0.0 mm
11:25 PM 75.0°F23.9°C 69.0°F20.6°C 82% 2.0 mph SSW3.2 kmh SSW 8.0 mph12.9 kmh 29.96 in1014.6 mb 0.00 in0.0 mm 0.00 in0.0 mm 0.00 in0.0 mm
11:30 PM 74.9°F23.8°C 69.0°F20.6°C 83% 5.0 mph S8.0 kmh S 8.0 mph12.9 kmh 29.97 in1014.9 mb 0.00 in0.0 mm 0.00 in0.0 mm 0.00 in0.0 mm
11:35 PM 74.8°F23.8°C 69.0°F20.6°C 83% 5.0 mph S8.0 kmh S 8.0 mph12.9 kmh 29.97 in1014.9 mb 0.00 in0.0 mm 0.00 in0.0 mm 0.00 in0.0 mm
11:40 PM 74.8°F23.8°C 69.0°F20.6°C 83% 2.0 mph SSW3.2 kmh SSW 8.0 mph12.9 kmh 29.97 in1014.9 mb 0.00 in0.0 mm 0.00 in0.0 mm 0.00 in0.0 mm
11:45 PM 74.7°F23.7°C 69.0°F20.6°C 83% 1.0 mph S1.6 kmh S 6.0 mph9.7 kmh 29.97 in1014.9 mb 0.00 in0.0 mm 0.00 in0.0 mm 0.00 in0.0 mm
11:50 PM 74.6°F23.7°C 69.0°F20.6°C 83% 4.0 mph S6.4 kmh S 8.0 mph12.9 kmh 29.96 in1014.6 mb 0.00 in0.0 mm 0.00 in0.0 mm 0.00 in0.0 mm
11:55 PM 74.6°F23.7°C 69.0°F20.6°C 83% 4.0 mph SSW6.4 kmh SSW 8.0 mph12.9 kmh 29.96 in1014.6 mb 0.00 in0.0 mm 0.00 in0.0 mm 0.00 in0.0 mm